Time;durP1;ratioP1;P1;durP2;ratioP2;P2;SDS_P1;SDS_P2;PMS_P1;PMS_P2;Temp;Humidity;BMP_temperature;BMP_pressure;BME280_temperature;BME280_humidity;BME280_pressure;Samples;Min_cycle;Max_cycle;Signal;HPM_P1;HPM_P2
2022/09/03 00:01:50;;;;;;;;;15.00;13.67;;;;;;;;5032535;28;46875;-69
2022/09/03 00:04:24;;;;;;;;;20.67;16.33;;;;;;;;5046696;28;45649;-68
2022/09/03 00:06:54;;;;;;;;;12.33;12.33;;;;;;;;5055909;28;45342;-68
2022/09/03 00:09:36;;;;;;;;;20.33;14.00;;;;;;;;5028547;28;45569;-67
2022/09/03 00:12:07;;;;;;;;;18.67;17.33;;;;;;;;5044176;28;45451;-68
2022/09/03 00:14:34;;;;;;;;;19.67;15.67;;;;;;;;5049598;28;45665;-70
2022/09/03 00:17:04;;;;;;;;;11.67;10.33;;;;;;;;5026740;28;45423;-68
2022/09/03 00:19:35;;;;;;;;;9.00;9.00;;;;;;;;5046913;28;45431;-69
2022/09/03 00:22:08;;;;;;;;;10.33;10.33;;;;;;;;5045475;28;45728;-69
2022/09/03 00:24:35;;;;;;;;;11.00;11.00;;;;;;;;5043604;28;45639;-69
2022/09/03 00:27:02;;;;;;;;;14.00;12.00;;;;;;;;5050835;28;45832;-69
2022/09/03 00:29:31;;;;;;;;;9.67;9.00;;;;;;;;5017840;28;45370;-69
2022/09/03 00:32:00;;;;;;;;;8.33;8.33;;;;;;;;5052255;28;45341;-69
2022/09/03 00:34:31;;;;;;;;;8.33;6.67;;;;;;;;5033735;28;48055;-69
2022/09/03 00:36:56;;;;;;;;;8.33;7.33;;;;;;;;5053465;28;45619;-69
2022/09/03 00:39:23;;;;;;;;;8.00;7.33;;;;;;;;5044200;28;45353;-70
2022/09/03 00:42:07;;;;;;;;;7.33;7.33;;;;;;;;5054757;28;46001;-68
2022/09/03 00:44:43;;;;;;;;;7.67;7.33;;;;;;;;5045264;28;45405;-69
2022/09/03 00:47:18;;;;;;;;;5.33;5.33;;;;;;;;5050340;28;45434;-70
2022/09/03 00:49:43;;;;;;;;;7.00;6.33;;;;;;;;5048700;28;45514;-68
2022/09/03 00:52:11;;;;;;;;;5.33;5.33;;;;;;;;5049473;28;45542;-68
2022/09/03 00:54:43;;;;;;;;;11.67;10.67;;;;;;;;5039065;28;46014;-69
2022/09/03 00:57:14;;;;;;;;;8.00;8.00;;;;;;;;5036296;28;45700;-69
2022/09/03 00:59:56;;;;;;;;;9.67;9.67;;;;;;;;5049981;28;45427;-67
2022/09/03 01:02:36;;;;;;;;;14.00;12.67;;;;;;;;5036188;28;45746;-68
2022/09/03 01:05:01;;;;;;;;;7.67;7.67;;;;;;;;5044528;28;45295;-67
2022/09/03 01:07:33;;;;;;;;;12.00;10.00;;;;;;;;5037322;28;45479;-67
2022/09/03 01:09:58;;;;;;;;;16.67;15.67;;;;;;;;5037089;28;45387;-66
2022/09/03 01:12:39;;;;;;;;;18.33;16.67;;;;;;;;5037675;28;45407;-68
2022/09/03 01:15:05;;;;;;;;;14.67;14.67;;;;;;;;5048167;28;45373;-68
2022/09/03 01:17:39;;;;;;;;;12.33;10.33;;;;;;;;5050515;28;45947;-67
2022/09/03 01:20:10;;;;;;;;;24.00;19.00;;;;;;;;5038304;28;45757;-67
2022/09/03 01:22:50;;;;;;;;;8.67;7.33;;;;;;;;5040897;28;47124;-67
2022/09/03 01:25:31;;;;;;;;;6.00;6.00;;;;;;;;5053871;28;46290;-69
2022/09/03 01:28:00;;;;;;;;;5.67;5.67;;;;;;;;5030236;28;46245;-68
2022/09/03 01:30:25;;;;;;;;;7.00;6.33;;;;;;;;5050341;28;45833;-69
2022/09/03 01:32:54;;;;;;;;;8.33;6.67;;;;;;;;5054505;28;45590;-68
2022/09/03 01:35:23;;;;;;;;;7.33;7.00;;;;;;;;5046866;28;45442;-68
2022/09/03 01:37:51;;;;;;;;;9.67;7.33;;;;;;;;5036587;28;45386;-66
2022/09/03 01:40:24;;;;;;;;;10.67;10.67;;;;;;;;5053878;28;45334;-67
2022/09/03 01:43:08;;;;;;;;;14.00;12.33;;;;;;;;5053612;28;45384;-67
2022/09/03 01:45:49;;;;;;;;;8.33;8.33;;;;;;;;5053372;28;45668;-68
2022/09/03 01:48:34;;;;;;;;;4.33;4.33;;;;;;;;5038663;28;45436;-73
2022/09/03 01:51:09;;;;;;;;;6.00;6.00;;;;;;;;5037073;28;45530;-67
2022/09/03 01:53:37;;;;;;;;;6.67;5.00;;;;;;;;5045008;28;45557;-67
2022/09/03 01:56:18;;;;;;;;;9.00;9.00;;;;;;;;5043909;28;46186;-67
2022/09/03 01:58:47;;;;;;;;;10.33;8.00;;;;;;;;5043127;28;45739;-66
2022/09/03 02:01:17;;;;;;;;;8.33;8.33;;;;;;;;5041865;28;45327;-66
2022/09/03 02:03:44;;;;;;;;;7.67;7.67;;;;;;;;5050993;28;45472;-67
2022/09/03 02:06:11;;;;;;;;;6.00;5.00;;;;;;;;5037915;28;45843;-69
2022/09/03 02:08:37;;;;;;;;;6.00;6.00;;;;;;;;5050942;28;45731;-66
2022/09/03 02:11:04;;;;;;;;;9.67;6.67;;;;;;;;5047838;28;45346;-67
2022/09/03 02:13:40;;;;;;;;;7.67;5.33;;;;;;;;5050822;28;45648;-68
2022/09/03 02:16:17;;;;;;;;;8.33;6.67;;;;;;;;5050619;28;46268;-68
2022/09/03 02:18:47;;;;;;;;;4.00;4.00;;;;;;;;5034355;28;45805;-67
2022/09/03 02:21:15;;;;;;;;;7.67;6.00;;;;;;;;5045692;28;45590;-65
2022/09/03 02:23:41;;;;;;;;;6.00;4.67;;;;;;;;5033779;28;45387;-66
2022/09/03 02:26:08;;;;;;;;;4.33;4.33;;;;;;;;5052568;28;46618;-66
2022/09/03 02:28:33;;;;;;;;;5.00;4.00;;;;;;;;5052053;28;45546;-67
2022/09/03 02:30:58;;;;;;;;;5.33;5.33;;;;;;;;5052520;28;45704;-68
2022/09/03 02:33:24;;;;;;;;;4.67;4.67;;;;;;;;5052454;28;45812;-67
2022/09/03 02:35:49;;;;;;;;;4.67;4.33;;;;;;;;5051528;28;45458;-66
2022/09/03 02:38:20;;;;;;;;;7.33;6.00;;;;;;;;5031427;28;45777;-67
2022/09/03 02:40:46;;;;;;;;;5.33;5.33;;;;;;;;5049791;28;45870;-67
2022/09/03 02:43:17;;;;;;;;;9.00;8.67;;;;;;;;5049106;28;45333;-67
2022/09/03 02:45:46;;;;;;;;;8.33;6.00;;;;;;;;5048208;28;45713;-67
2022/09/03 02:48:12;;;;;;;;;5.00;5.00;;;;;;;;5038503;28;45382;-68
2022/09/03 02:50:41;;;;;;;;;6.67;5.33;;;;;;;;5052347;28;45770;-66
2022/09/03 02:53:07;;;;;;;;;4.00;4.00;;;;;;;;5038771;28;45655;-67
2022/09/03 02:55:32;;;;;;;;;6.00;5.33;;;;;;;;5041260;28;46195;-67
2022/09/03 02:57:58;;;;;;;;;5.67;5.67;;;;;;;;5041360;28;45624;-67
2022/09/03 03:00:24;;;;;;;;;5.33;5.00;;;;;;;;5036911;28;45521;-67
2022/09/03 03:02:50;;;;;;;;;5.00;5.00;;;;;;;;5041597;28;45393;-67
2022/09/03 03:05:20;;;;;;;;;6.00;6.00;;;;;;;;5041030;28;46552;-66
2022/09/03 03:07:45;;;;;;;;;5.33;4.67;;;;;;;;5048532;28;45402;-66
2022/09/03 03:10:11;;;;;;;;;5.00;4.00;;;;;;;;5049094;28;45348;-66
2022/09/03 03:12:36;;;;;;;;;6.33;6.33;;;;;;;;5034750;28;45772;-66
2022/09/03 03:15:02;;;;;;;;;5.33;5.33;;;;;;;;5027051;28;46184;-67
2022/09/03 03:17:27;;;;;;;;;6.67;6.00;;;;;;;;5041002;28;45683;-67
2022/09/03 03:19:53;;;;;;;;;6.00;6.00;;;;;;;;5042507;28;45419;-67
2022/09/03 03:22:18;;;;;;;;;7.67;6.67;;;;;;;;5034847;28;45463;-68
2022/09/03 03:24:43;;;;;;;;;6.00;5.00;;;;;;;;5032795;28;45553;-66
2022/09/03 03:27:10;;;;;;;;;6.00;5.33;;;;;;;;5044675;28;45599;-66
2022/09/03 03:29:35;;;;;;;;;5.33;5.33;;;;;;;;5034031;28;46570;-67
2022/09/03 03:32:00;;;;;;;;;6.33;6.33;;;;;;;;5044675;28;45224;-67
2022/09/03 03:34:25;;;;;;;;;8.33;5.00;;;;;;;;5052489;28;45347;-67
2022/09/03 03:36:51;;;;;;;;;6.33;6.00;;;;;;;;5052820;28;45534;-67
2022/09/03 03:39:16;;;;;;;;;6.33;5.67;;;;;;;;5047735;28;45430;-68
2022/09/03 03:41:42;;;;;;;;;6.33;5.33;;;;;;;;5043956;28;45392;-70
2022/09/03 03:44:07;;;;;;;;;8.67;7.67;;;;;;;;5047320;28;46307;-67
2022/09/03 03:46:36;;;;;;;;;7.33;6.33;;;;;;;;5044993;28;45706;-68
2022/09/03 03:49:03;;;;;;;;;5.33;5.33;;;;;;;;5049974;28;45463;-68
2022/09/03 03:51:29;;;;;;;;;6.00;6.00;;;;;;;;5053024;28;45325;-67
2022/09/03 03:53:55;;;;;;;;;6.33;6.33;;;;;;;;5041951;28;45679;-70
2022/09/03 03:56:21;;;;;;;;;6.67;6.00;;;;;;;;5033868;28;45338;-69
2022/09/03 03:58:47;;;;;;;;;6.00;6.00;;;;;;;;5052695;28;45440;-68
2022/09/03 04:01:16;;;;;;;;;9.33;8.67;;;;;;;;5047891;28;45455;-68
2022/09/03 04:03:42;;;;;;;;;6.00;6.00;;;;;;;;5047832;28;45474;-70
2022/09/03 04:06:08;;;;;;;;;10.33;8.33;;;;;;;;5040828;28;45720;-67
2022/09/03 04:08:35;;;;;;;;;7.00;7.00;;;;;;;;5041046;28;45673;-68
2022/09/03 04:11:01;;;;;;;;;9.00;9.00;;;;;;;;5046277;28;45417;-68
2022/09/03 04:13:33;;;;;;;;;7.67;6.33;;;;;;;;5048206;28;46970;-70
2022/09/03 04:16:05;;;;;;;;;6.00;6.00;;;;;;;;5050581;28;45743;-69
2022/09/03 04:18:31;;;;;;;;;7.00;6.33;;;;;;;;5041315;28;45803;-69
2022/09/03 04:21:03;;;;;;;;;5.33;5.33;;;;;;;;5051452;28;45340;-70
2022/09/03 04:23:28;;;;;;;;;7.00;6.67;;;;;;;;5046314;28;45490;-71
2022/09/03 04:25:53;;;;;;;;;7.67;7.67;;;;;;;;5051801;28;45731;-69
2022/09/03 04:28:18;;;;;;;;;7.33;7.33;;;;;;;;5032051;28;45790;-70
2022/09/03 04:30:43;;;;;;;;;10.00;8.67;;;;;;;;5048600;28;45535;-68
2022/09/03 04:33:09;;;;;;;;;6.67;6.67;;;;;;;;5036366;28;46360;-67
2022/09/03 04:35:34;;;;;;;;;6.33;6.33;;;;;;;;5051851;28;45424;-70
2022/09/03 04:37:59;;;;;;;;;11.33;8.00;;;;;;;;5052431;28;45791;-67
2022/09/03 04:40:24;;;;;;;;;9.00;9.00;;;;;;;;5053709;28;45392;-68
2022/09/03 04:42:51;;;;;;;;;6.67;5.67;;;;;;;;5050114;28;45658;-69
2022/09/03 04:45:18;;;;;;;;;8.33;6.67;;;;;;;;5052077;28;45342;-68
2022/09/03 04:47:45;;;;;;;;;5.67;5.67;;;;;;;;5043604;28;45397;-68
2022/09/03 04:50:11;;;;;;;;;8.33;7.33;;;;;;;;5034837;28;45880;-69
2022/09/03 04:52:37;;;;;;;;;7.67;7.67;;;;;;;;5045064;28;46320;-67
2022/09/03 04:55:02;;;;;;;;;7.67;6.00;;;;;;;;5027814;28;45680;-70
2022/09/03 04:57:33;;;;;;;;;6.33;6.33;;;;;;;;5034366;28;45437;-68
2022/09/03 04:59:58;;;;;;;;;7.67;6.00;;;;;;;;5047609;28;45658;-67
2022/09/03 05:02:23;;;;;;;;;8.67;6.33;;;;;;;;5042265;28;45376;-69
2022/09/03 05:04:49;;;;;;;;;7.67;6.67;;;;;;;;5054000;28;45530;-67
2022/09/03 05:07:14;;;;;;;;;10.00;8.33;;;;;;;;5054639;28;45621;-68
2022/09/03 05:09:39;;;;;;;;;10.33;7.33;;;;;;;;5053714;28;45792;-67
2022/09/03 05:12:05;;;;;;;;;8.33;6.67;;;;;;;;5053639;28;45846;-69
2022/09/03 05:14:30;;;;;;;;;9.00;7.67;;;;;;;;5052702;28;45388;-67
2022/09/03 05:16:55;;;;;;;;;7.67;7.33;;;;;;;;5037802;28;45877;-69
2022/09/03 05:19:21;;;;;;;;;7.00;6.33;;;;;;;;5036623;28;45872;-68
2022/09/03 05:21:46;;;;;;;;;6.67;6.67;;;;;;;;5056340;28;45455;-68
2022/09/03 05:24:13;;;;;;;;;6.67;6.67;;;;;;;;5056134;28;45443;-68
2022/09/03 05:26:39;;;;;;;;;9.33;7.00;;;;;;;;5019109;28;45412;-68
2022/09/03 05:29:08;;;;;;;;;8.67;8.67;;;;;;;;5036734;28;45690;-68
2022/09/03 05:31:34;;;;;;;;;6.67;6.33;;;;;;;;5034443;28;45392;-69
2022/09/03 05:34:01;;;;;;;;;7.33;7.33;;;;;;;;5045135;28;45661;-69
2022/09/03 05:36:28;;;;;;;;;6.33;6.33;;;;;;;;5034271;28;45420;-72
2022/09/03 05:38:53;;;;;;;;;11.00;9.67;;;;;;;;5045848;28;45588;-67
2022/09/03 05:41:19;;;;;;;;;7.33;7.33;;;;;;;;5049288;28;45776;-70
2022/09/03 05:43:50;;;;;;;;;8.00;8.00;;;;;;;;5041835;28;45769;-68
2022/09/03 05:46:17;;;;;;;;;9.33;7.67;;;;;;;;5053295;28;45650;-70
2022/09/03 05:48:42;;;;;;;;;11.00;8.33;;;;;;;;5037025;28;45597;-69
2022/09/03 05:51:15;;;;;;;;;7.00;6.33;;;;;;;;5040644;28;46619;-69
2022/09/03 05:53:41;;;;;;;;;6.67;6.67;;;;;;;;5041293;28;45726;-69
2022/09/03 05:56:09;;;;;;;;;9.33;8.33;;;;;;;;5018535;28;45653;-69
2022/09/03 05:58:37;;;;;;;;;7.00;6.33;;;;;;;;5034247;28;45704;-67
2022/09/03 06:01:13;;;;;;;;;7.33;7.33;;;;;;;;5034034;28;45438;-69
2022/09/03 06:03:39;;;;;;;;;6.33;6.33;;;;;;;;5037909;28;45492;-69
2022/09/03 06:06:06;;;;;;;;;12.67;10.33;;;;;;;;5039092;28;45386;-69
2022/09/03 06:08:31;;;;;;;;;8.00;7.33;;;;;;;;5037512;28;45808;-66
2022/09/03 06:10:57;;;;;;;;;8.67;8.67;;;;;;;;5043553;28;45856;-69
2022/09/03 06:13:22;;;;;;;;;8.00;7.33;;;;;;;;5046239;28;45861;-69
2022/09/03 06:15:48;;;;;;;;;6.67;6.67;;;;;;;;5043649;28;45971;-69
2022/09/03 06:18:13;;;;;;;;;9.33;9.33;;;;;;;;5050218;28;45469;-69
2022/09/03 06:20:38;;;;;;;;;8.67;8.67;;;;;;;;5038125;28;46019;-68
2022/09/03 06:23:03;;;;;;;;;8.67;7.67;;;;;;;;5031841;28;46067;-69
2022/09/03 06:25:29;;;;;;;;;8.00;8.00;;;;;;;;5043980;28;46466;-69
2022/09/03 06:27:55;;;;;;;;;8.33;8.33;;;;;;;;5022726;28;46390;-70
2022/09/03 06:30:21;;;;;;;;;10.33;9.67;;;;;;;;5026502;28;46786;-69
2022/09/03 06:32:49;;;;;;;;;7.00;7.00;;;;;;;;5036442;28;45990;-69
2022/09/03 06:35:14;;;;;;;;;5.33;3.67;;;;;;;;5035735;28;45806;-69
2022/09/03 06:37:40;;;;;;;;;7.00;6.33;;;;;;;;5045658;28;45574;-69
2022/09/03 06:40:11;;;;;;;;;7.67;6.33;;;;;;;;5045334;28;45494;-70
2022/09/03 06:42:36;;;;;;;;;9.67;8.33;;;;;;;;5042485;28;45580;-69
2022/09/03 06:45:01;;;;;;;;;9.00;9.00;;;;;;;;5047765;28;45824;-69
2022/09/03 06:47:27;;;;;;;;;13.00;10.00;;;;;;;;5048136;28;45472;-68
2022/09/03 06:49:52;;;;;;;;;8.33;7.33;;;;;;;;5044586;28;45737;-68
2022/09/03 06:52:17;;;;;;;;;12.00;9.67;;;;;;;;5035178;28;45508;-68
2022/09/03 06:54:43;;;;;;;;;8.67;7.67;;;;;;;;5035493;28;46171;-68
2022/09/03 06:57:08;;;;;;;;;8.33;7.67;;;;;;;;5040328;28;45986;-68
2022/09/03 06:59:33;;;;;;;;;8.33;7.33;;;;;;;;5043882;28;45473;-68
2022/09/03 07:01:59;;;;;;;;;11.33;10.00;;;;;;;;5044732;28;45625;-66
2022/09/03 07:04:25;;;;;;;;;9.00;7.67;;;;;;;;5037607;28;45409;-68
2022/09/03 07:06:51;;;;;;;;;7.25;5.75;;;;;;;;5033556;28;45913;-68
2022/09/03 07:09:17;;;;;;;;;7.50;6.25;;;;;;;;5042835;28;45883;-70
2022/09/03 07:11:46;;;;;;;;;10.67;8.00;;;;;;;;5046153;28;45647;-69
2022/09/03 07:14:11;;;;;;;;;6.00;6.00;;;;;;;;5045781;28;45814;-71
2022/09/03 07:16:37;;;;;;;;;9.50;6.75;;;;;;;;5045026;28;45670;-68
2022/09/03 07:19:06;;;;;;;;;7.00;6.00;;;;;;;;5053508;28;45768;-68
2022/09/03 07:21:40;;;;;;;;;7.75;7.25;;;;;;;;5045425;28;45738;-72
2022/09/03 07:24:06;;;;;;;;;5.00;5.00;;;;;;;;5042884;28;45481;-70
2022/09/03 07:26:32;;;;;;;;;8.25;6.25;;;;;;;;5039548;28;46004;-70
2022/09/03 07:28:59;;;;;;;;;8.50;7.50;;;;;;;;5040166;28;46341;-69
2022/09/03 07:31:26;;;;;;;;;7.75;6.50;;;;;;;;5044496;28;45583;-68
2022/09/03 07:33:57;;;;;;;;;6.50;6.50;;;;;;;;5037903;28;45623;-70
2022/09/03 07:36:24;;;;;;;;;7.25;6.75;;;;;;;;5036511;28;45472;-68
2022/09/03 07:38:49;;;;;;;;;8.00;8.00;;;;;;;;5043671;28;45714;-68
2022/09/03 07:41:15;;;;;;;;;6.25;5.75;;;;;;;;5041488;28;45882;-68
2022/09/03 07:43:47;;;;;;;;;5.75;5.75;;;;;;;;5046154;28;45764;-70
2022/09/03 07:46:13;;;;;;;;;11.00;10.00;;;;;;;;5044899;28;45870;-70
2022/09/03 07:48:42;;;;;;;;;7.00;7.00;;;;;;;;5045958;28;46056;-70
2022/09/03 07:51:08;;;;;;;;;5.50;5.50;;;;;;;;5044530;28;45734;-70
2022/09/03 07:53:34;;;;;;;;;4.00;4.00;;;;;;;;5046571;28;45769;-69
2022/09/03 07:56:06;;;;;;;;;9.00;7.75;;;;;;;;5035651;28;46167;-69
2022/09/03 07:58:32;;;;;;;;;6.25;6.25;;;;;;;;5038987;28;47001;-72
2022/09/03 08:00:58;;;;;;;;;7.00;7.00;;;;;;;;5051361;28;45495;-68
2022/09/03 08:03:23;;;;;;;;;6.75;6.00;;;;;;;;5036415;28;45448;-70
2022/09/03 08:05:49;;;;;;;;;5.25;5.25;;;;;;;;5051078;28;45415;-69
2022/09/03 08:08:14;;;;;;;;;4.25;4.25;;;;;;;;5036511;28;45274;-69
2022/09/03 08:10:40;;;;;;;;;6.00;6.00;;;;;;;;5017953;28;45763;-70
2022/09/03 08:13:05;;;;;;;;;7.00;7.00;;;;;;;;5032248;28;45536;-68
2022/09/03 08:15:31;;;;;;;;;5.00;5.00;;;;;;;;5032166;28;45724;-70
2022/09/03 08:17:58;;;;;;;;;6.00;6.00;;;;;;;;5032825;28;45572;-70
2022/09/03 08:20:23;;;;;;;;;6.00;6.00;;;;;;;;5032670;28;45714;-70
2022/09/03 08:22:48;;;;;;;;;6.25;5.00;;;;;;;;5033146;28;45700;-69
2022/09/03 08:25:13;;;;;;;;;5.75;5.75;;;;;;;;5040757;28;45495;-71
2022/09/03 08:27:39;;;;;;;;;6.25;6.25;;;;;;;;5032313;28;48348;-69
2022/09/03 08:30:10;;;;;;;;;6.50;6.50;;;;;;;;5032183;28;45357;-69
2022/09/03 08:32:35;;;;;;;;;39.67;34.00;;;;;;;;5045814;28;45351;-72
2022/09/03 08:35:00;;;;;;;;;23.33;20.00;;;;;;;;5040625;28;45869;-70
2022/09/03 08:37:28;;;;;;;;;9.75;9.75;;;;;;;;5038179;28;45646;-69
2022/09/03 08:39:53;;;;;;;;;9.50;8.75;;;;;;;;5032719;28;45570;-69
2022/09/03 08:42:25;;;;;;;;;7.00;7.00;;;;;;;;5045872;28;45753;-70
2022/09/03 08:44:59;;;;;;;;;10.75;9.50;;;;;;;;5036032;28;45553;-69
2022/09/03 08:47:24;;;;;;;;;7.25;7.25;;;;;;;;5038056;28;45714;-70
2022/09/03 08:50:02;;;;;;;;;11.67;11.67;;;;;;;;5036137;28;45608;-69
2022/09/03 08:52:32;;;;;;;;;7.50;7.50;;;;;;;;5038134;28;45537;-70
2022/09/03 08:55:02;;;;;;;;;4.00;4.00;;;;;;;;5046840;28;45358;-69
2022/09/03 08:57:30;;;;;;;;;4.75;4.00;;;;;;;;5056992;28;45485;-67
2022/09/03 08:59:56;;;;;;;;;4.00;4.00;;;;;;;;5053085;28;45449;-70
2022/09/03 09:02:27;;;;;;;;;4.25;3.25;;;;;;;;5034912;28;45471;-68
2022/09/03 09:05:04;;;;;;;;;5.25;4.75;;;;;;;;5048564;28;45515;-67
2022/09/03 09:07:42;;;;;;;;;3.25;3.25;;;;;;;;5052599;28;45502;-67
2022/09/03 09:10:30;;;;;;;;;5.50;5.50;;;;;;;;5036134;28;45944;-70
2022/09/03 09:12:55;;;;;;;;;8.00;7.00;;;;;;;;5025619;28;45757;-68
2022/09/03 09:15:26;;;;;;;;;4.00;2.00;;;;;;;;5038313;28;46034;-69
2022/09/03 09:17:57;;;;;;;;;7.25;4.75;;;;;;;;5038566;28;46255;-71
2022/09/03 09:20:42;;;;;;;;;2.75;2.75;;;;;;;;5047265;28;45429;-70
2022/09/03 09:23:12;;;;;;;;;3.00;3.00;;;;;;;;5039179;28;45338;-70
2022/09/03 09:25:58;;;;;;;;;3.00;3.00;;;;;;;;5041689;28;45521;-67
2022/09/03 09:28:24;;;;;;;;;2.75;2.75;;;;;;;;5044468;28;45437;-69
2022/09/03 09:30:53;;;;;;;;;2.00;2.00;;;;;;;;5039109;28;45310;-67
2022/09/03 09:33:19;;;;;;;;;2.00;2.00;;;;;;;;5041430;28;45421;-64
2022/09/03 09:35:45;;;;;;;;;2.50;2.00;;;;;;;;5031216;28;46413;-67
2022/09/03 09:38:11;;;;;;;;;2.50;2.50;;;;;;;;5038519;28;45415;-66
2022/09/03 09:40:38;;;;;;;;;2.50;2.25;;;;;;;;5041668;28;45862;-69
2022/09/03 09:43:14;;;;;;;;;2.50;2.50;;;;;;;;5044315;28;45309;-68
2022/09/03 09:45:41;;;;;;;;;2.00;2.00;;;;;;;;5042816;28;45869;-66
2022/09/03 09:48:09;;;;;;;;;0.00;0.00;;;;;;;;5043343;28;45589;-67
2022/09/03 09:50:35;;;;;;;;;1.25;0.00;;;;;;;;5045631;28;45899;-67
2022/09/03 09:53:13;;;;;;;;;1.00;1.00;;;;;;;;5042795;28;45449;-71
2022/09/03 09:55:47;;;;;;;;;4.50;2.75;;;;;;;;5046176;28;45500;-67
2022/09/03 09:58:13;;;;;;;;;2.00;2.00;;;;;;;;5036470;28;45811;-67
2022/09/03 10:00:38;;;;;;;;;1.25;1.25;;;;;;;;5040306;28;45797;-66
2022/09/03 10:03:09;;;;;;;;;1.75;1.75;;;;;;;;5053387;28;45662;-65
2022/09/03 10:05:39;;;;;;;;;1.75;1.50;;;;;;;;5043718;28;45527;-68
2022/09/03 10:08:16;;;;;;;;;2.00;2.00;;;;;;;;5032083;28;47249;-67
2022/09/03 10:10:48;;;;;;;;;2.00;2.00;;;;;;;;5043758;28;45598;-68
2022/09/03 10:13:18;;;;;;;;;3.50;2.00;;;;;;;;5043338;28;47055;-68
2022/09/03 10:15:49;;;;;;;;;1.00;1.00;;;;;;;;5046967;28;45798;-67
2022/09/03 10:18:27;;;;;;;;;2.75;2.00;;;;;;;;5046433;28;46260;-67
2022/09/03 10:20:52;;;;;;;;;4.00;2.00;;;;;;;;5051048;28;45791;-67
2022/09/03 10:23:22;;;;;;;;;3.00;3.00;;;;;;;;5052875;28;45875;-66
2022/09/03 10:25:52;;;;;;;;;3.25;3.25;;;;;;;;5029986;28;45828;-66
2022/09/03 10:28:22;;;;;;;;;3.00;2.00;;;;;;;;5041159;28;47137;-67
2022/09/03 10:30:59;;;;;;;;;3.00;2.75;;;;;;;;5049062;28;45727;-70
2022/09/03 10:33:33;;;;;;;;;2.00;2.00;;;;;;;;5046049;28;45803;-70
2022/09/03 10:36:09;;;;;;;;;3.00;2.00;;;;;;;;5048873;28;45373;-67
2022/09/03 10:38:36;;;;;;;;;2.75;2.75;;;;;;;;5046293;28;46855;-67
2022/09/03 10:41:15;;;;;;;;;3.75;3.00;;;;;;;;5044191;28;45892;-66
2022/09/03 10:43:40;;;;;;;;;2.00;2.00;;;;;;;;5042924;28;45801;-69
2022/09/03 10:46:16;;;;;;;;;3.75;2.75;;;;;;;;5051893;28;45736;-68
2022/09/03 10:48:53;;;;;;;;;3.00;2.00;;;;;;;;5051709;28;46314;-69
2022/09/03 10:51:32;;;;;;;;;3.00;3.00;;;;;;;;5052502;28;45488;-69
2022/09/03 10:54:04;;;;;;;;;5.00;3.25;;;;;;;;5048947;28;45844;-70
2022/09/03 10:56:38;;;;;;;;;2.00;2.00;;;;;;;;5039260;28;45383;-70
2022/09/03 10:59:23;;;;;;;;;3.00;2.00;;;;;;;;5039660;28;45751;-75
2022/09/03 11:01:51;;;;;;;;;3.00;3.00;;;;;;;;5035975;28;45384;-71
2022/09/03 11:04:37;;;;;;;;;3.00;3.00;;;;;;;;5029963;28;45723;-69
2022/09/03 11:07:04;;;;;;;;;3.50;2.75;;;;;;;;5030788;28;45480;-70
2022/09/03 11:09:32;;;;;;;;;3.00;2.25;;;;;;;;5061099;28;46326;-71
2022/09/03 11:12:00;;;;;;;;;2.00;2.00;;;;;;;;5047935;28;45318;-66
2022/09/03 11:14:46;;;;;;;;;2.25;2.25;;;;;;;;5035745;28;45339;-67
2022/09/03 11:17:15;;;;;;;;;4.25;4.25;;;;;;;;5033943;28;45732;-69
2022/09/03 11:22:22;;;;;;;;;5.50;5.50;;;;;;;;5046629;28;46005;-66
2022/09/03 11:24:52;;;;;;;;;5.00;5.00;;;;;;;;5053264;28;45424;-66
2022/09/03 11:27:35;;;;;;;;;12.00;11.00;;;;;;;;5050982;28;45430;-67
2022/09/03 11:30:03;;;;;;;;;3.75;3.75;;;;;;;;5040291;28;45924;-66
2022/09/03 11:32:34;;;;;;;;;6.00;6.00;;;;;;;;5047720;28;45461;-70
2022/09/03 11:35:00;;;;;;;;;9.00;7.00;;;;;;;;5029308;28;45687;-68
2022/09/03 11:37:26;;;;;;;;;5.25;5.25;;;;;;;;5028602;28;46082;-66
2022/09/03 11:40:03;;;;;;;;;3.00;3.00;;;;;;;;5043932;28;45853;-67
2022/09/03 11:42:31;;;;;;;;;3.00;3.00;;;;;;;;5029822;28;45917;-68
2022/09/03 11:45:13;;;;;;;;;4.25;3.00;;;;;;;;5047634;28;45676;-68
2022/09/03 11:47:40;;;;;;;;;4.25;3.50;;;;;;;;5051124;28;45516;-66
2022/09/03 11:50:08;;;;;;;;;3.00;3.00;;;;;;;;5047468;27;45473;-67
2022/09/03 11:52:39;;;;;;;;;3.25;3.25;;;;;;;;5050485;28;45480;-65
2022/09/03 11:55:04;;;;;;;;;6.25;3.00;;;;;;;;5055336;28;45684;-68
2022/09/03 11:57:32;;;;;;;;;1.75;1.75;;;;;;;;5051041;28;45827;-66
2022/09/03 12:00:11;;;;;;;;;1.00;1.00;;;;;;;;5048346;27;46363;-68
2022/09/03 12:02:40;;;;;;;;;4.00;2.00;;;;;;;;5027460;28;45462;-65
2022/09/03 12:05:12;;;;;;;;;3.00;3.00;;;;;;;;5032614;28;45379;-67
2022/09/03 12:07:37;;;;;;;;;3.00;3.00;;;;;;;;5054450;28;45378;-67
2022/09/03 12:10:17;;;;;;;;;1.75;1.75;;;;;;;;5034390;28;47121;-66
2022/09/03 12:13:01;;;;;;;;;3.75;2.75;;;;;;;;5050991;28;45444;-66
2022/09/03 12:15:38;;;;;;;;;4.00;2.00;;;;;;;;5050647;28;45477;-66
2022/09/03 12:18:18;;;;;;;;;5.00;3.00;;;;;;;;5047315;28;45345;-66
2022/09/03 12:20:44;;;;;;;;;2.00;2.00;;;;;;;;5008132;28;1173575;-67
2022/09/03 12:23:10;;;;;;;;;3.50;3.50;;;;;;;;5053953;28;45526;-66
2022/09/03 12:25:41;;;;;;;;;2.00;2.00;;;;;;;;5055053;28;45515;-67
2022/09/03 12:28:11;;;;;;;;;2.00;2.00;;;;;;;;5054289;28;45641;-66
2022/09/03 12:30:37;;;;;;;;;2.00;2.00;;;;;;;;5061120;28;46342;-66
2022/09/03 12:33:06;;;;;;;;;2.00;2.00;;;;;;;;5052354;28;45344;-67
2022/09/03 12:35:31;;;;;;;;;2.00;2.00;;;;;;;;5054969;28;45867;-65
2022/09/03 12:37:57;;;;;;;;;1.00;1.00;;;;;;;;5037213;28;47156;-67
2022/09/03 12:40:24;;;;;;;;;0.75;0.75;;;;;;;;5055274;28;45744;-66
2022/09/03 12:42:50;;;;;;;;;1.25;1.25;;;;;;;;5055141;28;45510;-65
2022/09/03 12:45:19;;;;;;;;;1.25;1.25;;;;;;;;5037479;28;45346;-65
2022/09/03 12:47:44;;;;;;;;;3.00;2.00;;;;;;;;5037047;28;47614;-66
2022/09/03 12:50:17;;;;;;;;;0.50;0.50;;;;;;;;5051524;28;45759;-66
2022/09/03 12:52:48;;;;;;;;;2.50;1.00;;;;;;;;5052195;28;45322;-67
2022/09/03 12:55:26;;;;;;;;;1.00;1.00;;;;;;;;5055113;28;45540;-67
2022/09/03 12:57:55;;;;;;;;;0.00;0.00;;;;;;;;5064658;28;45417;-66
2022/09/03 13:00:20;;;;;;;;;2.00;2.00;;;;;;;;5054092;28;46354;-67
2022/09/03 13:02:55;;;;;;;;;1.75;1.75;;;;;;;;5045288;28;45431;-66
2022/09/03 13:05:24;;;;;;;;;1.00;1.00;;;;;;;;5054493;28;45422;-70
2022/09/03 13:07:52;;;;;;;;;0.00;0.00;;;;;;;;5056424;28;45740;-66
2022/09/03 13:10:25;;;;;;;;;1.50;1.50;;;;;;;;5054943;28;45614;-66
2022/09/03 13:12:51;;;;;;;;;0.75;0.75;;;;;;;;5054511;28;45683;-66
2022/09/03 13:15:18;;;;;;;;;1.00;1.00;;;;;;;;5057790;28;45670;-66
2022/09/03 13:17:53;;;;;;;;;0.00;0.00;;;;;;;;5047052;28;45657;-65
2022/09/03 13:20:24;;;;;;;;;2.00;2.00;;;;;;;;5052698;28;46233;-65
2022/09/03 13:22:49;;;;;;;;;1.00;1.00;;;;;;;;5053819;28;45771;-66
2022/09/03 13:25:21;;;;;;;;;1.00;1.00;;;;;;;;5054327;27;45570;-65
2022/09/03 13:28:22;;;;;;;;;1.00;1.00;;;;;;;;5056080;28;45796;-68
2022/09/03 13:30:50;;;;;;;;;0.50;0.50;;;;;;;;5000040;28;47176;-66
2022/09/03 13:33:15;;;;;;;;;2.00;0.00;;;;;;;;5042398;28;45577;-67
2022/09/03 13:35:50;;;;;;;;;1.00;1.00;;;;;;;;5046868;28;45354;-66
2022/09/03 13:38:31;;;;;;;;;1.00;1.00;;;;;;;;5029114;28;46189;-67
2022/09/03 13:41:19;;;;;;;;;1.00;1.00;;;;;;;;5044491;28;45648;-66
2022/09/03 13:43:49;;;;;;;;;0.25;0.25;;;;;;;;5055570;28;45805;-68
2022/09/03 13:46:17;;;;;;;;;0.00;0.00;;;;;;;;5050528;28;45531;-66
2022/09/03 13:51:38;;;;;;;;;0.00;0.00;;;;;;;;5053163;28;45694;-67
2022/09/03 13:54:04;;;;;;;;;0.00;0.00;;;;;;;;5051190;27;45618;-66
2022/09/03 13:56:44;;;;;;;;;1.75;0.00;;;;;;;;5048697;28;45759;-67
2022/09/03 13:59:19;;;;;;;;;1.00;0.00;;;;;;;;5045811;28;45537;-67
2022/09/03 14:02:04;;;;;;;;;0.00;0.00;;;;;;;;5044279;28;45450;-67
2022/09/03 14:04:52;;;;;;;;;0.75;0.75;;;;;;;;5047188;28;45382;-66
2022/09/03 14:07:22;;;;;;;;;0.75;0.75;;;;;;;;5043971;28;45571;-68
2022/09/03 14:09:57;;;;;;;;;0.00;0.00;;;;;;;;5023010;28;45830;-66
2022/09/03 14:12:41;;;;;;;;;0.50;0.00;;;;;;;;5045674;28;45731;-68
2022/09/03 14:15:28;;;;;;;;;0.00;0.00;;;;;;;;5048584;27;46113;-70
2022/09/03 14:18:13;;;;;;;;;2.00;1.00;;;;;;;;5046602;28;45524;-68
2022/09/03 14:20:45;;;;;;;;;0.00;0.00;;;;;;;;5050703;28;45698;-70
2022/09/03 14:23:16;;;;;;;;;2.00;0.00;;;;;;;;5048645;28;45355;-67
2022/09/03 14:25:50;;;;;;;;;0.00;0.00;;;;;;;;5045484;28;45553;-69
2022/09/03 14:28:35;;;;;;;;;0.00;0.00;;;;;;;;5042303;28;45420;-65
2022/09/03 14:31:00;;;;;;;;;0.00;0.00;;;;;;;;5044468;28;45500;-68
2022/09/03 14:33:32;;;;;;;;;0.00;0.00;;;;;;;;5044450;28;46226;-67
2022/09/03 14:36:06;;;;;;;;;1.25;0.00;;;;;;;;5043009;28;45746;-66
2022/09/03 14:38:45;;;;;;;;;0.00;0.00;;;;;;;;5043749;28;45672;-66
2022/09/03 14:41:15;;;;;;;;;0.00;0.00;;;;;;;;5031382;28;45681;-68
2022/09/03 14:43:40;;;;;;;;;0.00;0.00;;;;;;;;5048162;28;46083;-68
2022/09/03 14:46:12;;;;;;;;;0.00;0.00;;;;;;;;5044544;28;45696;-71
2022/09/03 14:48:46;;;;;;;;;0.00;0.00;;;;;;;;5028832;28;45527;-69
2022/09/03 14:51:15;;;;;;;;;0.00;0.00;;;;;;;;5033111;28;45848;-67
2022/09/03 14:53:46;;;;;;;;;0.00;0.00;;;;;;;;5024440;28;48252;-67
2022/09/03 14:56:30;;;;;;;;;0.00;0.00;;;;;;;;5045824;28;45463;-68
2022/09/03 14:59:01;;;;;;;;;0.25;0.25;;;;;;;;5042798;28;45747;-69
2022/09/03 15:01:34;;;;;;;;;1.00;1.00;;;;;;;;5049215;28;46064;-69